Rathdrum, ID

10:53 PM PDT on October 01, 2014 (GMT -0700)
Coeur D'Alene | Change Station
CLOSE
Current Station
Airport
Location: Coeur d'Alene,
Elevation: 2320 ft
Nearby Weather Stations

Elev 2320 ft 47.77 °N, 116.82 °W | Updated 18 minutes ago

Mostly Cloudy
Mostly Cloudy
54 °F
Feels Like 54 °F
N
9
Wind Variable Wind from South

Today
High -- | Low -- °F
--% Chance of Precip.
Yesterday
High -- | Low -- °F
Precip. -- in
6:46 AM 6:26 PM
First Quarter, 55% visible
Pressure 30.02 in
Visibility 10.0 miles
Clouds Clear
Dew Point 37 °F
Humidity 54%
Rainfall 0.02 in
Snow Depth 1 in , 1 in , 1 in
UV 0 out of 12
Pollen 5.70 out of 12
Air Quality Not available.
Flu Activity Not available.
METAR KCOE 020535Z AUTO 18008KT 10SM CLR 12/03 A3002 RMK AO1

More Conditions Fewer Conditions

Pressure 30.02 in
Visibility 10.0 miles
Clouds Clear
Dew Point 37 °F
Humidity 54%
Rainfall 0.02 in
Snow Depth 1 in , 1 in , 1 in
UV 0 out of 12
Pollen 5.70 out of 12
Air Quality Not available.
Flu Activity Not available.
METAR KCOE 020535Z AUTO 18008KT 10SM CLR 12/03 A3002 RMK AO1

More Conditions Fewer Conditions

10-Day Weather Forecast

Almanac

Astronomy

Oct. 01, 2014 Rise Set
Actual Time 6:46 AM PDT 6:26 PM PDT
Civil Twilight 6:16 AM PDT 6:57 PM PDT
Nautical Twilight 5:40 AM PDT 7:33 PM PDT
Astronomical Twilight 5:03 AM PDT 8:09 PM PDT
Moon 2:10 PM PDT (10/1) 11:45 PM PDT (10/1)
Length of Visible Light 12h 41m
Length of Day
11h 39m
Tomorrow will be 3m 26s shorter.
First Quarter, 55% of the Moon is Illuminated
Oct 2
First Quarter
Oct 8
Full
Oct 15
Last Quarter
Oct 23
New
Oct 30
First Quarter

Yesterday's Extremes

State Highs State Lows

Community

WunderPhotos

Upload Photos

1,758,197 photos uploaded!

Nearby

Snow Depth

Station Depth Elevation
Humboldt Gulch 1 in 4250 ft
Camas Creek Divide 1 in 5710 ft
Atlanta Summit 1 in 7580 ft
Squaw Flat 1 in 6240 ft
Moscow Mountain 0 in 4700 ft

Earthquake Activity

City Distance Mag. Time & Date
No recent earthquake activity has been reported nearby.
Minimum magnitude displayed is 2.5.

Coastal Water Temperatures

Place Temperature
No Stations Reporting

Nearby Weather Stations